createdAt,value
2019-05-16T00:00:29.003Z,0.00
2019-05-16T00:01:30.055Z,0.00
2019-05-16T00:02:28.525Z,0.00
2019-05-16T00:03:28.318Z,0.00
2019-05-16T00:04:28.465Z,0.00
2019-05-16T00:05:28.368Z,0.00
2019-05-16T00:06:28.518Z,0.00
2019-05-16T00:07:28.451Z,0.00
2019-05-16T00:08:28.689Z,0.00
2019-05-16T00:09:28.691Z,0.00
2019-05-16T00:10:28.498Z,0.00
2019-05-16T00:11:28.526Z,0.00
2019-05-16T00:12:32.188Z,0.00
2019-05-16T00:13:28.571Z,0.00
2019-05-16T00:14:28.598Z,0.00
2019-05-16T00:15:28.915Z,0.00
2019-05-16T00:16:28.862Z,0.00
2019-05-16T00:17:28.675Z,0.00
2019-05-16T00:18:28.714Z,0.00
2019-05-16T00:20:11.276Z,0.00
2019-05-16T00:21:11.302Z,0.00
2019-05-16T00:22:11.331Z,0.00
2019-05-16T00:23:11.363Z,0.00
2019-05-16T00:24:11.381Z,0.00
2019-05-16T00:25:11.407Z,0.00
2019-05-16T00:26:11.433Z,0.00
2019-05-16T00:27:11.464Z,0.00
2019-05-16T00:28:11.482Z,0.00
2019-05-16T00:29:11.508Z,0.00
2019-05-16T00:30:11.536Z,0.00
2019-05-16T00:31:11.561Z,0.00
2019-05-16T00:32:11.585Z,0.00
2019-05-16T00:33:11.610Z,0.00
2019-05-16T00:34:11.639Z,0.00
2019-05-16T00:35:11.662Z,0.00
2019-05-16T00:36:11.689Z,0.00
2019-05-16T00:37:11.716Z,0.00
2019-05-16T00:38:11.743Z,0.00
2019-05-16T00:39:11.767Z,0.00
2019-05-16T00:40:11.793Z,0.00
2019-05-16T00:41:11.824Z,0.00
2019-05-16T00:42:11.845Z,0.00
2019-05-16T00:43:11.868Z,0.00
2019-05-16T00:44:11.897Z,0.00
2019-05-16T00:45:13.506Z,0.00
2019-05-16T00:46:11.951Z,0.00
2019-05-16T00:47:11.973Z,0.00
2019-05-16T00:48:12.001Z,0.00
2019-05-16T00:49:12.029Z,0.00
2019-05-16T00:50:12.051Z,0.00
2019-05-16T00:51:12.075Z,0.00
2019-05-16T00:52:12.100Z,0.00
2019-05-16T00:53:12.145Z,0.00
2019-05-16T00:54:12.151Z,0.00
2019-05-16T00:55:12.179Z,0.00
2019-05-16T00:56:12.205Z,0.00
2019-05-16T00:57:12.228Z,0.00
2019-05-16T00:58:12.254Z,0.00
2019-05-16T00:59:12.281Z,0.00
2019-05-16T01:00:12.311Z,0.00
2019-05-16T01:01:12.333Z,0.00
2019-05-16T01:02:12.362Z,0.00
2019-05-16T01:03:12.384Z,0.00
2019-05-16T01:04:12.414Z,0.00
2019-05-16T01:05:14.503Z,0.00
2019-05-16T01:06:18.590Z,0.00
2019-05-16T01:07:12.485Z,0.00
2019-05-16T01:08:12.513Z,0.00
2019-05-16T01:09:12.538Z,0.00
2019-05-16T01:10:12.563Z,0.00
2019-05-16T01:11:12.592Z,0.00
2019-05-16T01:12:12.617Z,0.00
2019-05-16T01:13:12.639Z,0.00
2019-05-16T01:14:12.668Z,0.00
2019-05-16T01:15:12.691Z,0.00
2019-05-16T01:16:12.736Z,0.00
2019-05-16T01:17:12.749Z,0.00
2019-05-16T01:18:12.776Z,0.00
2019-05-16T01:19:12.800Z,0.00
2019-05-16T01:20:12.821Z,0.00
2019-05-16T01:21:12.848Z,0.00
2019-05-16T01:22:12.873Z,0.00
2019-05-16T01:23:12.904Z,0.00
2019-05-16T01:24:12.931Z,0.00
2019-05-16T01:25:12.950Z,0.00
2019-05-16T01:26:12.973Z,0.00
2019-05-16T01:27:12.998Z,0.00
2019-05-16T01:28:13.031Z,0.00
2019-05-16T01:29:13.050Z,0.00
2019-05-16T01:30:13.079Z,0.00
2019-05-16T01:31:13.104Z,0.00
2019-05-16T01:32:13.140Z,0.00
2019-05-16T01:33:13.156Z,0.00
2019-05-16T01:34:13.179Z,0.00
2019-05-16T01:35:13.205Z,0.00
2019-05-16T01:36:13.236Z,0.00
2019-05-16T01:37:13.266Z,0.00
2019-05-16T01:38:13.284Z,0.00
2019-05-16T01:39:13.309Z,0.00
2019-05-16T01:40:13.433Z,0.00
2019-05-16T01:41:13.361Z,0.00
2019-05-16T01:42:13.388Z,0.00
2019-05-16T01:43:13.412Z,0.00
2019-05-16T01:44:13.447Z,0.00
2019-05-16T01:45:13.466Z,0.00
2019-05-16T01:46:13.498Z,0.00
2019-05-16T01:47:13.522Z,0.00
2019-05-16T01:48:14.959Z,0.00
2019-05-16T01:49:13.569Z,0.00
2019-05-16T01:50:13.593Z,0.00
2019-05-16T01:51:13.616Z,0.00
2019-05-16T01:52:13.645Z,0.00
2019-05-16T01:53:13.671Z,0.00
2019-05-16T01:54:13.694Z,0.00
2019-05-16T01:55:13.719Z,0.00
2019-05-16T01:56:13.745Z,0.00
2019-05-16T01:57:13.771Z,0.00
2019-05-16T01:58:13.799Z,0.00
2019-05-16T01:59:13.829Z,0.00
2019-05-16T02:00:13.849Z,0.00
2019-05-16T02:01:15.901Z,0.00
2019-05-16T02:02:13.903Z,0.00
2019-05-16T02:03:13.928Z,0.00
2019-05-16T02:04:13.952Z,0.00
2019-05-16T02:05:13.980Z,0.00
2019-05-16T02:06:14.006Z,0.00
2019-05-16T02:07:14.031Z,0.00
2019-05-16T02:08:14.058Z,0.00
2019-05-16T02:09:14.083Z,0.00
2019-05-16T02:10:14.109Z,0.00
2019-05-16T02:11:14.131Z,0.00
2019-05-16T02:12:14.160Z,0.00
2019-05-16T02:13:14.190Z,0.00
2019-05-16T02:14:14.818Z,0.00
2019-05-16T02:15:14.240Z,0.00
2019-05-16T02:16:14.266Z,0.00
2019-05-16T02:17:14.287Z,0.00
2019-05-16T02:18:14.313Z,0.00
2019-05-16T02:19:14.338Z,0.00
2019-05-16T02:20:14.364Z,0.00
2019-05-16T02:21:14.395Z,0.00
2019-05-16T02:22:14.417Z,0.00
2019-05-16T02:23:14.439Z,0.00
2019-05-16T02:24:14.467Z,0.00
2019-05-16T02:25:14.492Z,0.00
2019-05-16T02:26:14.526Z,0.00
2019-05-16T02:27:14.541Z,0.00
2019-05-16T02:28:14.569Z,0.00
2019-05-16T02:29:14.594Z,0.00
2019-05-16T02:30:14.624Z,0.00
2019-05-16T02:31:15.431Z,0.00
2019-05-16T02:32:14.671Z,0.00
2019-05-16T02:33:14.699Z,0.00
2019-05-16T02:34:14.725Z,0.00
2019-05-16T02:35:14.757Z,0.00
2019-05-16T02:36:14.785Z,0.00
2019-05-16T02:37:24.178Z,0.00
2019-05-16T02:38:14.827Z,0.00
2019-05-16T02:39:14.851Z,0.00
2019-05-16T02:40:14.887Z,0.00
2019-05-16T02:41:14.902Z,0.00
2019-05-16T02:42:14.934Z,0.00
2019-05-16T02:43:14.959Z,0.00
2019-05-16T02:44:14.978Z,0.00
2019-05-16T02:45:15.020Z,0.00
2019-05-16T02:46:15.032Z,0.00
2019-05-16T02:47:15.064Z,0.00
2019-05-16T02:48:15.123Z,0.00
2019-05-16T02:49:15.113Z,0.00
2019-05-16T02:50:15.136Z,0.00
2019-05-16T02:51:15.161Z,0.00
2019-05-16T02:52:15.191Z,0.00
2019-05-16T02:53:15.212Z,0.00
2019-05-16T02:54:15.248Z,0.00
2019-05-16T02:55:15.263Z,0.00
2019-05-16T02:56:15.307Z,0.00
2019-05-16T02:57:15.321Z,0.00
2019-05-16T02:58:15.346Z,0.00
2019-05-16T02:59:15.374Z,0.00
2019-05-16T03:00:15.388Z,0.00
2019-05-16T03:01:15.422Z,0.00
2019-05-16T03:02:15.441Z,0.00
2019-05-16T03:03:15.471Z,0.00
2019-05-16T03:04:15.499Z,0.00
2019-05-16T03:05:15.518Z,0.00
2019-05-16T03:06:15.547Z,0.00
2019-05-16T03:07:32.829Z,0.00
2019-05-16T03:08:15.595Z,0.00
2019-05-16T03:09:15.632Z,0.00
2019-05-16T03:10:15.644Z,0.00
2019-05-16T03:11:15.676Z,0.00
2019-05-16T03:12:15.697Z,0.00
2019-05-16T03:13:15.723Z,0.00
2019-05-16T03:14:15.747Z,0.00
2019-05-16T03:15:15.776Z,0.00
2019-05-16T03:16:15.807Z,0.00
2019-05-16T03:17:15.827Z,0.00
2019-05-16T03:18:15.848Z,0.00
2019-05-16T03:19:15.876Z,0.00
2019-05-16T03:20:15.907Z,0.00
2019-05-16T03:21:15.935Z,0.00
2019-05-16T03:22:15.949Z,0.00
2019-05-16T03:23:15.977Z,0.00
2019-05-16T03:24:16.001Z,0.00
2019-05-16T03:25:16.025Z,0.00
2019-05-16T03:26:16.054Z,0.00
2019-05-16T03:27:16.081Z,0.00
2019-05-16T03:28:16.100Z,0.00
2019-05-16T03:29:16.126Z,0.00
2019-05-16T03:30:17.152Z,0.00
2019-05-16T03:31:16.250Z,0.00
2019-05-16T03:32:16.205Z,0.00
2019-05-16T03:33:24.097Z,0.00
2019-05-16T03:34:17.395Z,0.00
2019-05-16T03:35:17.007Z,0.00
2019-05-16T03:36:16.613Z,0.00
2019-05-16T03:37:16.331Z,0.00
2019-05-16T03:38:16.359Z,0.00
2019-05-16T03:39:16.382Z,0.00
2019-05-16T03:40:16.405Z,0.00
2019-05-16T03:41:16.433Z,0.00
2019-05-16T03:42:16.468Z,0.00
2019-05-16T03:43:16.486Z,0.00
2019-05-16T03:44:16.510Z,0.00
2019-05-16T03:45:16.543Z,0.00
2019-05-16T03:46:16.558Z,0.00
2019-05-16T03:47:16.584Z,0.00
2019-05-16T03:48:16.616Z,0.00
2019-05-16T03:49:16.635Z,0.00
2019-05-16T03:50:16.660Z,0.00
2019-05-16T03:51:16.685Z,5.63
2019-05-16T03:52:16.709Z,5.63
2019-05-16T03:53:16.734Z,5.63
2019-05-16T03:54:16.768Z,5.63
2019-05-16T03:55:16.795Z,5.63
2019-05-16T03:56:16.814Z,5.63
2019-05-16T03:57:16.838Z,5.63
2019-05-16T03:58:16.867Z,5.63
2019-05-16T03:59:16.891Z,5.63
2019-05-16T04:00:16.941Z,5.63
2019-05-16T04:01:16.938Z,5.63
2019-05-16T04:02:16.967Z,5.63
2019-05-16T04:03:16.997Z,5.63
2019-05-16T04:04:17.015Z,5.63
2019-05-16T04:05:17.056Z,5.63
2019-05-16T04:06:17.064Z,5.63
2019-05-16T04:07:17.090Z,11.25
2019-05-16T04:08:20.635Z,11.25
2019-05-16T04:09:17.143Z,11.25
2019-05-16T04:10:17.174Z,11.25
2019-05-16T04:11:22.101Z,11.25
2019-05-16T04:12:17.225Z,11.25
2019-05-16T04:13:17.244Z,11.25
2019-05-16T04:14:17.286Z,11.25
2019-05-16T04:15:17.299Z,11.25
2019-05-16T04:16:17.324Z,11.25
2019-05-16T04:17:17.343Z,11.25
2019-05-16T04:18:17.374Z,11.25
2019-05-16T04:19:20.866Z,11.25
2019-05-16T04:20:17.421Z,11.25
2019-05-16T04:21:20.866Z,11.25
2019-05-16T04:22:17.470Z,11.25
2019-05-16T04:23:20.375Z,11.25
2019-05-16T04:24:21.390Z,11.25
2019-05-16T04:25:17.548Z,11.25
2019-05-16T04:26:17.578Z,11.25
2019-05-16T04:27:17.625Z,11.25
2019-05-16T04:28:21.349Z,11.25
2019-05-16T04:29:20.457Z,16.88
2019-05-16T04:30:17.674Z,16.88
2019-05-16T04:31:17.701Z,16.88
2019-05-16T04:32:20.568Z,16.88
2019-05-16T04:33:17.754Z,16.88
2019-05-16T04:34:20.442Z,11.25
2019-05-16T04:35:21.116Z,11.25
2019-05-16T04:36:21.063Z,11.25
2019-05-16T04:37:17.879Z,11.25
2019-05-16T04:38:31.671Z,16.88
2019-05-16T04:39:20.899Z,16.88
2019-05-16T04:40:17.934Z,16.88
2019-05-16T04:41:20.821Z,16.88
2019-05-16T04:42:21.291Z,16.88
2019-05-16T04:43:18.000Z,16.88
2019-05-16T04:44:21.042Z,22.50
2019-05-16T04:45:21.018Z,22.50
2019-05-16T04:46:20.853Z,22.50
2019-05-16T04:47:20.881Z,22.50
2019-05-16T04:48:21.813Z,22.50
2019-05-16T04:49:20.936Z,22.50
2019-05-16T04:50:21.121Z,22.50
2019-05-16T04:51:21.587Z,28.13
2019-05-16T04:52:21.483Z,28.13
2019-05-16T04:53:20.691Z,33.75
2019-05-16T04:54:21.349Z,33.75
2019-05-16T04:55:21.068Z,39.38
2019-05-16T04:56:21.327Z,39.38
2019-05-16T04:57:20.892Z,45.00
2019-05-16T04:58:22.930Z,50.63
2019-05-16T04:59:20.806Z,50.63
2019-05-16T05:00:21.284Z,56.25
2019-05-16T05:01:21.205Z,56.25
2019-05-16T05:02:21.218Z,61.88
2019-05-16T05:03:20.865Z,61.88
2019-05-16T05:04:21.205Z,61.88
2019-05-16T05:05:21.569Z,61.88
2019-05-16T05:06:20.843Z,61.88
2019-05-16T05:07:20.652Z,61.88
2019-05-16T05:08:21.700Z,61.88
2019-05-16T05:09:20.898Z,61.88
2019-05-16T05:10:20.649Z,61.88
2019-05-16T05:11:21.401Z,61.88
2019-05-16T05:12:20.860Z,67.50
2019-05-16T05:13:21.939Z,67.50
2019-05-16T05:14:21.219Z,73.13
2019-05-16T05:15:21.252Z,78.75
2019-05-16T05:16:20.358Z,84.38
2019-05-16T05:17:21.029Z,90.00
2019-05-16T05:18:21.220Z,90.00
2019-05-16T05:19:20.272Z,95.63
2019-05-16T05:20:21.029Z,95.63
2019-05-16T05:21:20.885Z,101.25
2019-05-16T05:22:19.914Z,112.50
2019-05-16T05:23:20.991Z,106.88
2019-05-16T05:24:19.690Z,106.88
2019-05-16T05:25:20.396Z,106.88
2019-05-16T05:26:19.970Z,106.88
2019-05-16T05:27:19.757Z,112.50
2019-05-16T05:28:21.024Z,118.13
2019-05-16T05:29:20.025Z,123.75
2019-05-16T05:30:19.767Z,129.38
2019-05-16T05:31:25.153Z,129.38
2019-05-16T05:32:20.026Z,129.38
2019-05-16T05:33:21.003Z,135.00
2019-05-16T05:34:19.881Z,135.00
2019-05-16T05:35:20.700Z,129.38
2019-05-16T05:36:21.082Z,129.38
2019-05-16T05:37:20.471Z,129.38
2019-05-16T05:38:21.342Z,129.38
2019-05-16T05:39:20.041Z,129.38
2019-05-16T05:40:20.099Z,129.38
2019-05-16T05:41:19.937Z,123.75
2019-05-16T05:42:20.011Z,123.75
2019-05-16T05:43:21.450Z,123.75
2019-05-16T05:44:20.319Z,123.75
2019-05-16T05:45:20.153Z,118.13
2019-05-16T05:46:20.477Z,123.75
2019-05-16T05:47:20.076Z,112.50
2019-05-16T05:48:21.592Z,112.50
2019-05-16T05:49:20.506Z,106.88
2019-05-16T05:50:20.289Z,101.25
2019-05-16T05:51:20.702Z,95.63
2019-05-16T05:52:20.795Z,90.00
2019-05-16T05:53:20.799Z,84.38
2019-05-16T05:54:20.364Z,78.75
2019-05-16T05:55:20.238Z,73.13
2019-05-16T05:56:19.921Z,73.13
2019-05-16T05:57:20.882Z,67.50
2019-05-16T05:58:20.574Z,67.50
2019-05-16T05:59:20.250Z,67.50
2019-05-16T06:00:21.105Z,67.50
2019-05-16T06:01:20.674Z,67.50
2019-05-16T06:02:20.253Z,67.50
2019-05-16T06:03:22.505Z,67.50
2019-05-16T06:04:20.075Z,67.50
2019-05-16T06:05:20.369Z,67.50
2019-05-16T06:06:21.047Z,73.13
2019-05-16T06:07:20.637Z,73.13
2019-05-16T06:08:20.459Z,78.75
2019-05-16T06:09:28.300Z,78.75
2019-05-16T06:10:20.216Z,84.38
2019-05-16T06:11:20.659Z,84.38
2019-05-16T06:12:21.202Z,90.00
2019-05-16T06:13:20.929Z,90.00
2019-05-16T06:14:21.194Z,95.63
2019-05-16T06:15:20.471Z,95.63
2019-05-16T06:16:20.683Z,101.25
2019-05-16T06:17:20.400Z,101.25
2019-05-16T06:18:20.489Z,106.88
2019-05-16T06:19:20.556Z,106.88
2019-05-16T06:20:20.553Z,101.25
2019-05-16T06:21:20.637Z,95.63
2019-05-16T06:22:20.679Z,95.63
2019-05-16T06:23:21.138Z,90.00
2019-05-16T06:24:20.576Z,84.38
2019-05-16T06:25:22.776Z,78.75
2019-05-16T06:26:20.762Z,73.13
2019-05-16T06:27:21.057Z,67.50
2019-05-16T06:28:21.321Z,67.50
2019-05-16T06:29:20.707Z,73.13
2019-05-16T06:30:21.462Z,78.75
2019-05-16T06:31:22.050Z,84.38
2019-05-16T06:32:20.786Z,95.63
2019-05-16T06:33:20.813Z,106.88
2019-05-16T06:34:21.107Z,112.50
2019-05-16T06:35:23.948Z,123.75
2019-05-16T06:36:20.895Z,129.38
2019-05-16T06:37:20.911Z,135.00
2019-05-16T06:38:21.420Z,135.00
2019-05-16T06:39:20.967Z,135.00
2019-05-16T06:40:20.995Z,135.00
2019-05-16T06:41:21.015Z,123.75
2019-05-16T06:42:21.041Z,118.13
2019-05-16T06:43:21.067Z,118.13
2019-05-16T06:44:21.092Z,123.75
2019-05-16T06:45:21.120Z,123.75
2019-05-16T06:46:21.149Z,129.38
2019-05-16T06:47:23.113Z,129.38
2019-05-16T06:48:21.676Z,146.25
2019-05-16T06:49:21.229Z,168.75
2019-05-16T06:50:21.248Z,191.25
2019-05-16T06:51:21.271Z,196.88
2019-05-16T06:52:21.296Z,191.25
2019-05-16T06:53:21.464Z,185.63
2019-05-16T06:54:21.382Z,180.00
2019-05-16T06:55:21.376Z,174.38
2019-05-16T06:56:21.402Z,174.38
2019-05-16T06:57:21.426Z,180.00
2019-05-16T06:58:22.434Z,185.63
2019-05-16T06:59:21.479Z,196.88
2019-05-16T07:00:21.510Z,196.88
2019-05-16T07:01:21.535Z,202.50
2019-05-16T07:02:29.839Z,196.88
2019-05-16T07:03:21.584Z,191.25
2019-05-16T07:04:21.607Z,168.75
2019-05-16T07:05:21.638Z,146.25
2019-05-16T07:06:45.469Z,135.00
2019-05-16T07:07:21.695Z,135.00
2019-05-16T07:08:21.725Z,135.00
2019-05-16T07:09:21.747Z,135.00
2019-05-16T07:10:21.771Z,135.00
2019-05-16T07:11:21.790Z,146.25
2019-05-16T07:12:21.817Z,151.88
2019-05-16T07:13:21.843Z,151.88
2019-05-16T07:14:22.768Z,151.88
2019-05-16T07:15:21.895Z,146.25
2019-05-16T07:16:21.971Z,135.00
2019-05-16T07:17:21.947Z,135.00
2019-05-16T07:18:21.976Z,135.00
2019-05-16T07:19:22.008Z,129.38
2019-05-16T07:20:22.028Z,129.38
2019-05-16T07:21:22.052Z,135.00
2019-05-16T07:22:22.078Z,140.63
2019-05-16T07:23:22.111Z,151.88
2019-05-16T07:24:22.132Z,163.13
2019-05-16T07:25:22.155Z,174.38
2019-05-16T07:26:22.188Z,191.25
2019-05-16T07:27:22.214Z,213.75
2019-05-16T07:28:22.234Z,230.63
2019-05-16T07:29:22.267Z,247.50
2019-05-16T07:30:22.295Z,253.13
2019-05-16T07:31:22.764Z,258.75
2019-05-16T07:32:22.345Z,275.63
2019-05-16T07:33:22.373Z,275.63
2019-05-16T07:34:22.401Z,270.00
2019-05-16T07:35:22.432Z,253.13
2019-05-16T07:36:22.453Z,241.88
2019-05-16T07:37:22.478Z,225.00
2019-05-16T07:38:22.496Z,213.75
2019-05-16T07:39:22.524Z,213.75
2019-05-16T07:40:26.597Z,208.13
2019-05-16T07:41:22.575Z,196.88
2019-05-16T07:42:22.607Z,185.63
2019-05-16T07:43:22.627Z,174.38
2019-05-16T07:44:22.657Z,163.13
2019-05-16T07:45:22.680Z,157.50
2019-05-16T07:46:22.715Z,163.13
2019-05-16T07:47:22.735Z,174.38
2019-05-16T07:48:22.765Z,185.63
2019-05-16T07:49:22.785Z,196.88
2019-05-16T07:50:22.811Z,208.13
2019-05-16T07:51:22.837Z,230.63
2019-05-16T07:52:22.866Z,241.88
2019-05-16T07:53:22.890Z,247.50
2019-05-16T07:54:22.935Z,236.25
2019-05-16T07:55:22.950Z,241.88
2019-05-16T07:56:22.986Z,247.50
2019-05-16T07:57:23.269Z,264.38
2019-05-16T07:58:23.024Z,281.25
2019-05-16T07:59:23.056Z,292.50
2019-05-16T08:00:44.570Z,315.00
2019-05-16T08:01:23.106Z,326.25
2019-05-16T08:02:23.137Z,337.50
2019-05-16T08:03:23.161Z,483.75
2019-05-16T08:04:23.184Z,466.88
2019-05-16T08:05:23.207Z,545.63
2019-05-16T08:06:23.234Z,534.38
2019-05-16T08:07:23.266Z,483.75
2019-05-16T08:08:24.491Z,517.50
2019-05-16T08:09:23.313Z,585.00
2019-05-16T08:10:37.136Z,590.63
2019-05-16T08:11:23.786Z,551.25
2019-05-16T08:12:26.189Z,506.25
2019-05-16T08:13:23.425Z,506.25
2019-05-16T08:14:23.458Z,534.38
2019-05-16T08:15:23.477Z,534.38
2019-05-16T08:16:23.503Z,528.75
2019-05-16T08:17:23.530Z,534.38
2019-05-16T08:18:23.563Z,506.25
2019-05-16T08:19:25.297Z,483.75
2019-05-16T08:20:23.609Z,444.38
2019-05-16T08:21:27.566Z,405.00
2019-05-16T08:22:23.665Z,382.50
2019-05-16T08:23:23.694Z,371.25
2019-05-16T08:24:23.725Z,365.63
2019-05-16T08:25:23.755Z,360.00
2019-05-16T08:26:23.806Z,348.75
2019-05-16T08:27:23.802Z,343.13
2019-05-16T08:28:23.835Z,331.88
2019-05-16T08:29:23.855Z,315.00
2019-05-16T08:30:23.885Z,303.75
2019-05-16T08:31:23.919Z,275.63
2019-05-16T08:32:23.946Z,258.75
2019-05-16T08:33:23.989Z,253.13
2019-05-16T08:34:23.994Z,247.50
2019-05-16T08:35:24.017Z,247.50
2019-05-16T08:36:24.048Z,247.50
2019-05-16T08:37:36.885Z,241.88
2019-05-16T08:38:24.115Z,253.13
2019-05-16T08:39:24.128Z,270.00
2019-05-16T08:40:24.155Z,286.88
2019-05-16T08:41:24.183Z,309.38
2019-05-16T08:42:24.217Z,326.25
2019-05-16T08:43:24.244Z,337.50
2019-05-16T08:44:24.264Z,365.63
2019-05-16T08:45:24.297Z,399.38
2019-05-16T08:46:24.326Z,438.75
2019-05-16T08:47:24.354Z,506.25
2019-05-16T08:48:24.395Z,697.50
2019-05-16T08:49:24.403Z,720.00
2019-05-16T08:50:24.437Z,697.50
2019-05-16T08:51:24.457Z,675.00
2019-05-16T08:52:24.483Z,663.75
2019-05-16T08:53:24.510Z,703.13
2019-05-16T08:54:24.538Z,776.25
2019-05-16T08:55:24.571Z,838.13
2019-05-16T08:56:24.595Z,838.13
2019-05-16T08:57:28.986Z,793.13
2019-05-16T08:58:24.651Z,736.88
2019-05-16T08:59:24.681Z,708.75
2019-05-16T09:00:24.711Z,725.63
2019-05-16T09:01:24.751Z,720.00
2019-05-16T09:02:35.502Z,669.38
2019-05-16T09:03:24.790Z,601.88
2019-05-16T09:04:25.409Z,573.75
2019-05-16T09:05:24.854Z,523.13
2019-05-16T09:06:24.880Z,466.88
2019-05-16T09:07:24.908Z,461.25
2019-05-16T09:08:24.930Z,444.38
2019-05-16T09:09:41.623Z,433.13
2019-05-16T09:11:35.539Z,393.75
2019-05-16T09:12:27.696Z,393.75
2019-05-16T09:13:27.736Z,399.38
2019-05-16T09:14:27.672Z,393.75
2019-05-16T09:15:27.270Z,393.75
2019-05-16T09:16:27.530Z,421.88
2019-05-16T09:17:27.720Z,483.75
2019-05-16T09:18:28.239Z,556.88
2019-05-16T09:19:27.474Z,601.88
2019-05-16T09:20:28.008Z,646.88
2019-05-16T09:21:27.504Z,714.38
2019-05-16T09:22:28.008Z,849.38
2019-05-16T09:23:26.792Z,1130.63
2019-05-16T09:24:27.192Z,888.75
2019-05-16T09:25:27.495Z,663.75
2019-05-16T09:26:27.727Z,714.38
2019-05-16T09:27:27.303Z,826.88
2019-05-16T09:28:28.257Z,607.50
2019-05-16T09:29:27.316Z,551.25
2019-05-16T09:30:27.431Z,523.13
2019-05-16T09:31:27.525Z,517.50
2019-05-16T09:32:27.946Z,523.13
2019-05-16T09:33:26.976Z,506.25
2019-05-16T09:34:28.374Z,478.13
2019-05-16T09:35:28.065Z,450.00
2019-05-16T09:36:28.061Z,450.00
2019-05-16T09:37:26.748Z,489.38
2019-05-16T09:38:28.459Z,551.25
2019-05-16T09:39:27.717Z,686.25
2019-05-16T09:40:27.872Z,691.88
2019-05-16T09:41:27.262Z,798.75
2019-05-16T09:42:27.730Z,720.00
2019-05-16T09:43:28.044Z,579.38
2019-05-16T09:44:27.308Z,585.00
2019-05-16T09:45:27.264Z,478.13
2019-05-16T09:46:27.568Z,421.88
2019-05-16T09:47:28.216Z,416.25
2019-05-16T09:48:28.035Z,450.00
2019-05-16T09:49:26.291Z,534.38
2019-05-16T09:50:26.645Z,410.63
2019-05-16T09:51:27.103Z,388.13
2019-05-16T09:52:27.398Z,388.13
2019-05-16T09:53:27.607Z,382.50
2019-05-16T09:54:27.397Z,354.38
2019-05-16T09:55:26.876Z,337.50
2019-05-16T09:56:26.975Z,331.88
2019-05-16T09:57:27.767Z,337.50
2019-05-16T09:58:27.815Z,348.75
2019-05-16T09:59:26.493Z,382.50
2019-05-16T10:00:27.057Z,433.13
2019-05-16T10:01:27.613Z,579.38
2019-05-16T10:02:27.369Z,545.63
2019-05-16T10:03:27.177Z,506.25
2019-05-16T10:04:26.825Z,466.88
2019-05-16T10:05:26.957Z,421.88
2019-05-16T10:06:27.601Z,427.50
2019-05-16T10:07:28.258Z,433.13
2019-05-16T10:08:26.933Z,495.00
2019-05-16T10:09:40.209Z,500.63
2019-05-16T10:10:26.694Z,410.63
2019-05-16T10:11:30.914Z,315.00
2019-05-16T10:12:26.747Z,270.00
2019-05-16T10:13:27.638Z,253.13
2019-05-16T10:14:27.000Z,241.88
2019-05-16T10:15:27.096Z,253.13
2019-05-16T10:16:27.505Z,270.00
2019-05-16T10:17:27.364Z,281.25
2019-05-16T10:18:27.763Z,281.25
2019-05-16T10:19:27.565Z,270.00
2019-05-16T10:20:27.480Z,270.00
2019-05-16T10:21:27.308Z,258.75
2019-05-16T10:22:27.326Z,247.50
2019-05-16T10:23:28.373Z,241.88
2019-05-16T10:24:27.095Z,236.25
2019-05-16T10:25:27.855Z,230.63
2019-05-16T10:26:27.727Z,225.00
2019-05-16T10:27:27.177Z,219.38
2019-05-16T10:28:27.798Z,213.75
2019-05-16T10:29:27.626Z,213.75
2019-05-16T10:30:27.255Z,208.13
2019-05-16T10:31:41.552Z,202.50
2019-05-16T10:32:27.498Z,202.50
2019-05-16T10:33:27.745Z,196.88
2019-05-16T10:34:27.364Z,185.63
2019-05-16T10:35:30.126Z,180.00
2019-05-16T10:36:28.111Z,180.00
2019-05-16T10:37:27.456Z,185.63
2019-05-16T10:38:28.537Z,185.63
2019-05-16T10:39:27.500Z,180.00
2019-05-16T10:40:27.539Z,174.38
2019-05-16T10:41:27.553Z,168.75
2019-05-16T10:42:29.239Z,163.13
2019-05-16T10:43:27.610Z,163.13
2019-05-16T10:44:28.374Z,168.75
2019-05-16T10:45:27.666Z,168.75
2019-05-16T10:46:27.707Z,168.75
2019-05-16T10:47:31.122Z,168.75
2019-05-16T10:48:27.745Z,168.75
2019-05-16T10:49:36.780Z,163.13
2019-05-16T10:50:27.922Z,157.50
2019-05-16T10:51:27.853Z,146.25
2019-05-16T10:52:27.854Z,146.25
2019-05-16T10:53:58.180Z,157.50
2019-05-16T10:54:28.052Z,163.13
2019-05-16T10:55:27.990Z,163.13
2019-05-16T10:56:27.965Z,163.13
2019-05-16T10:57:29.929Z,163.13
2019-05-16T10:58:36.509Z,157.50
2019-05-16T11:00:57.662Z,157.50
2019-05-16T11:01:31.209Z,151.88
2019-05-16T11:02:28.148Z,146.25
2019-05-16T11:03:28.347Z,146.25
2019-05-16T11:04:37.190Z,146.25
2019-05-16T11:05:33.664Z,140.63
2019-05-16T11:06:29.424Z,140.63
2019-05-16T11:07:29.789Z,146.25
2019-05-16T11:08:28.288Z,146.25
2019-05-16T11:09:28.315Z,146.25
2019-05-16T11:10:29.659Z,151.88
2019-05-16T11:11:28.370Z,157.50
2019-05-16T11:12:46.042Z,168.75
2019-05-16T11:13:28.422Z,191.25
2019-05-16T11:14:28.450Z,208.13
2019-05-16T11:15:28.480Z,213.75
2019-05-16T11:16:28.512Z,219.38
2019-05-16T11:17:28.533Z,208.13
2019-05-16T11:18:28.559Z,202.50
2019-05-16T11:19:28.598Z,185.63
2019-05-16T11:20:28.712Z,174.38
2019-05-16T11:21:28.639Z,163.13
2019-05-16T11:22:30.034Z,151.88
2019-05-16T11:23:31.448Z,146.25
2019-05-16T11:24:29.401Z,146.25
2019-05-16T11:25:32.477Z,146.25
2019-05-16T11:26:30.225Z,146.25
2019-05-16T11:27:28.798Z,140.63
2019-05-16T11:28:28.837Z,140.63
2019-05-16T11:29:28.859Z,135.00
2019-05-16T11:30:28.938Z,140.63
2019-05-16T11:31:28.908Z,140.63
2019-05-16T11:32:28.933Z,140.63
2019-05-16T11:33:29.002Z,146.25
2019-05-16T11:34:28.991Z,157.50
2019-05-16T11:35:29.016Z,168.75
2019-05-16T11:36:29.040Z,185.63
2019-05-16T11:37:29.068Z,202.50
2019-05-16T11:38:29.109Z,213.75
2019-05-16T11:39:29.132Z,230.63
2019-05-16T11:40:30.324Z,241.88
2019-05-16T11:41:29.184Z,264.38
2019-05-16T11:42:29.205Z,286.88
2019-05-16T11:43:29.231Z,309.38
2019-05-16T11:44:29.274Z,331.88
2019-05-16T11:45:29.293Z,371.25
2019-05-16T11:46:29.311Z,427.50
2019-05-16T11:47:29.339Z,472.50
2019-05-16T11:48:29.764Z,483.75
2019-05-16T11:49:29.393Z,483.75
2019-05-16T11:50:29.422Z,478.13
2019-05-16T11:51:29.446Z,466.88
2019-05-16T11:52:29.472Z,461.25
2019-05-16T11:53:29.505Z,489.38
2019-05-16T11:54:29.530Z,483.75
2019-05-16T11:55:33.737Z,534.38
2019-05-16T11:56:29.584Z,607.50
2019-05-16T11:57:29.611Z,703.13
2019-05-16T11:58:29.637Z,691.88
2019-05-16T11:59:29.667Z,601.88
2019-05-16T12:00:30.649Z,618.75
2019-05-16T12:01:29.731Z,669.38
2019-05-16T12:02:29.750Z,652.50
2019-05-16T12:03:29.779Z,646.88
2019-05-16T12:04:29.810Z,646.88
2019-05-16T12:05:29.835Z,579.38
2019-05-16T12:06:29.865Z,540.00
2019-05-16T12:07:33.837Z,511.88
2019-05-16T12:08:29.917Z,472.50
2019-05-16T12:09:33.475Z,393.75
2019-05-16T12:10:29.976Z,343.13
2019-05-16T12:11:30.009Z,326.25
2019-05-16T12:12:30.031Z,315.00
2019-05-16T12:13:32.996Z,315.00
2019-05-16T12:14:30.091Z,320.63
2019-05-16T12:15:30.123Z,326.25
2019-05-16T12:16:30.145Z,337.50
2019-05-16T12:17:30.175Z,343.13
2019-05-16T12:18:30.224Z,365.63
2019-05-16T12:19:34.296Z,376.88
2019-05-16T12:20:30.258Z,450.00
2019-05-16T12:21:30.287Z,573.75
2019-05-16T12:22:30.316Z,646.88
2019-05-16T12:23:30.343Z,624.38
2019-05-16T12:24:37.266Z,556.88
2019-05-16T12:25:30.401Z,489.38
2019-05-16T12:26:30.430Z,495.00
2019-05-16T12:27:33.262Z,523.13
2019-05-16T12:28:30.493Z,540.00
2019-05-16T12:29:30.522Z,489.38
2019-05-16T12:30:30.548Z,416.25
2019-05-16T12:31:32.585Z,360.00
2019-05-16T12:32:30.600Z,331.88
2019-05-16T12:33:30.640Z,326.25
2019-05-16T12:34:30.657Z,315.00
2019-05-16T12:35:30.689Z,303.75
2019-05-16T12:36:31.526Z,286.88
2019-05-16T12:37:30.745Z,275.63
2019-05-16T12:38:30.772Z,253.13
2019-05-16T12:39:30.803Z,230.63
2019-05-16T12:40:30.839Z,208.13
2019-05-16T12:41:30.859Z,202.50
2019-05-16T12:42:30.888Z,191.25
2019-05-16T12:43:44.846Z,185.63
2019-05-16T12:44:30.941Z,180.00
2019-05-16T12:45:30.973Z,185.63
2019-05-16T12:46:31.006Z,191.25
2019-05-16T12:47:31.034Z,202.50
2019-05-16T12:48:31.059Z,202.50
2019-05-16T12:49:31.087Z,191.25
2019-05-16T12:50:31.111Z,180.00